sensor_id;sensor_type;location;lat;lon;timestamp;temperature;humidity
31733;DHT22;18312;51.486;7.144;2022-12-18T00:00:45;-8.10;99.90
31733;DHT22;18312;51.486;7.144;2022-12-18T00:03:13;-8.30;99.90
31733;DHT22;18312;51.486;7.144;2022-12-18T00:05:46;-8.10;99.90
31733;DHT22;18312;51.486;7.144;2022-12-18T00:08:14;-8.20;99.90
31733;DHT22;18312;51.486;7.144;2022-12-18T00:10:41;-8.20;99.90
31733;DHT22;18312;51.486;7.144;2022-12-18T00:13:07;-8.00;99.90
31733;DHT22;18312;51.486;7.144;2022-12-18T00:15:36;-8.00;99.90
31733;DHT22;18312;51.486;7.144;2022-12-18T00:18:03;-7.80;99.90
31733;DHT22;18312;51.486;7.144;2022-12-18T00:20:30;-7.90;99.90
31733;DHT22;18312;51.486;7.144;2022-12-18T00:22:56;-7.90;99.90
31733;DHT22;18312;51.486;7.144;2022-12-18T00:25:23;-8.00;99.90
31733;DHT22;18312;51.486;7.144;2022-12-18T00:27:50;-8.10;99.90
31733;DHT22;18312;51.486;7.144;2022-12-18T00:30:17;-8.20;99.90
31733;DHT22;18312;51.486;7.144;2022-12-18T00:32:45;-8.10;99.90
31733;DHT22;18312;51.486;7.144;2022-12-18T00:35:11;-7.90;99.90
31733;DHT22;18312;51.486;7.144;2022-12-18T00:37:38;-7.90;99.90
31733;DHT22;18312;51.486;7.144;2022-12-18T00:40:06;-8.00;99.90
31733;DHT22;18312;51.486;7.144;2022-12-18T00:42:33;-8.00;99.90
31733;DHT22;18312;51.486;7.144;2022-12-18T00:45:17;-7.90;99.90
31733;DHT22;18312;51.486;7.144;2022-12-18T00:47:48;-7.80;99.90
31733;DHT22;18312;51.486;7.144;2022-12-18T00:50:15;-8.00;99.90
31733;DHT22;18312;51.486;7.144;2022-12-18T00:52:45;-8.20;99.90
31733;DHT22;18312;51.486;7.144;2022-12-18T00:55:18;-8.40;99.90
31733;DHT22;18312;51.486;7.144;2022-12-18T00:57:46;-8.40;99.90
31733;DHT22;18312;51.486;7.144;2022-12-18T01:00:15;-8.50;99.90
31733;DHT22;18312;51.486;7.144;2022-12-18T01:02:45;-8.50;99.90
31733;DHT22;18312;51.486;7.144;2022-12-18T01:05:14;-8.40;99.90
31733;DHT22;18312;51.486;7.144;2022-12-18T01:07:44;-8.30;99.90
31733;DHT22;18312;51.486;7.144;2022-12-18T01:10:12;-8.30;99.90
31733;DHT22;18312;51.486;7.144;2022-12-18T01:12:40;-8.30;99.90
31733;DHT22;18312;51.486;7.144;2022-12-18T01:15:09;-8.50;99.90
31733;DHT22;18312;51.486;7.144;2022-12-18T01:17:58;-8.50;99.90
31733;DHT22;18312;51.486;7.144;2022-12-18T01:20:26;-8.20;99.90
31733;DHT22;18312;51.486;7.144;2022-12-18T01:22:53;-8.00;99.90
31733;DHT22;18312;51.486;7.144;2022-12-18T01:25:21;-8.10;99.90
31733;DHT22;18312;51.486;7.144;2022-12-18T01:27:57;-8.20;99.90
31733;DHT22;18312;51.486;7.144;2022-12-18T01:30:27;-8.20;99.90
31733;DHT22;18312;51.486;7.144;2022-12-18T01:32:55;-8.20;99.90
31733;DHT22;18312;51.486;7.144;2022-12-18T01:35:51;-8.20;99.90
31733;DHT22;18312;51.486;7.144;2022-12-18T01:38:19;-8.30;99.90
31733;DHT22;18312;51.486;7.144;2022-12-18T01:40:46;-8.20;99.90
31733;DHT22;18312;51.486;7.144;2022-12-18T01:43:14;-8.20;99.90
31733;DHT22;18312;51.486;7.144;2022-12-18T01:45:41;-8.30;99.90
31733;DHT22;18312;51.486;7.144;2022-12-18T01:48:09;-8.30;99.90
31733;DHT22;18312;51.486;7.144;2022-12-18T01:50:40;-8.40;99.90
31733;DHT22;18312;51.486;7.144;2022-12-18T01:53:12;-8.50;99.90
31733;DHT22;18312;51.486;7.144;2022-12-18T01:55:44;-8.60;99.90
31733;DHT22;18312;51.486;7.144;2022-12-18T01:58:13;-8.40;99.90
31733;DHT22;18312;51.486;7.144;2022-12-18T02:00:41;-8.50;99.90
31733;DHT22;18312;51.486;7.144;2022-12-18T02:03:09;-8.60;99.90
31733;DHT22;18312;51.486;7.144;2022-12-18T02:05:42;-8.70;99.90
31733;DHT22;18312;51.486;7.144;2022-12-18T02:08:17;-8.70;99.90
31733;DHT22;18312;51.486;7.144;2022-12-18T02:10:48;-8.40;99.90
31733;DHT22;18312;51.486;7.144;2022-12-18T02:13:23;-8.20;99.90
31733;DHT22;18312;51.486;7.144;2022-12-18T02:16:00;-8.10;99.90
31733;DHT22;18312;51.486;7.144;2022-12-18T02:18:31;-8.10;99.90
31733;DHT22;18312;51.486;7.144;2022-12-18T02:21:04;-8.20;99.90
31733;DHT22;18312;51.486;7.144;2022-12-18T02:23:48;-8.20;99.90
31733;DHT22;18312;51.486;7.144;2022-12-18T02:26:22;-8.20;99.90
31733;DHT22;18312;51.486;7.144;2022-12-18T02:28:54;-8.40;99.90
31733;DHT22;18312;51.486;7.144;2022-12-18T02:31:25;-8.40;99.90
31733;DHT22;18312;51.486;7.144;2022-12-18T02:33:56;-8.50;99.90
31733;DHT22;18312;51.486;7.144;2022-12-18T02:36:25;-8.60;99.90
31733;DHT22;18312;51.486;7.144;2022-12-18T02:38:55;-8.60;99.90
31733;DHT22;18312;51.486;7.144;2022-12-18T02:41:24;-8.50;99.90
31733;DHT22;18312;51.486;7.144;2022-12-18T02:43:57;-8.50;99.90
31733;DHT22;18312;51.486;7.144;2022-12-18T02:46:29;-8.70;99.90
31733;DHT22;18312;51.486;7.144;2022-12-18T02:49:05;-8.80;99.90
31733;DHT22;18312;51.486;7.144;2022-12-18T02:51:37;-8.80;99.90
31733;DHT22;18312;51.486;7.144;2022-12-18T02:54:09;-8.80;99.90
31733;DHT22;18312;51.486;7.144;2022-12-18T02:56:43;-8.70;99.90
31733;DHT22;18312;51.486;7.144;2022-12-18T02:59:14;-8.80;99.90
31733;DHT22;18312;51.486;7.144;2022-12-18T03:01:50;-8.80;99.90
31733;DHT22;18312;51.486;7.144;2022-12-18T03:04:39;-8.60;99.90
31733;DHT22;18312;51.486;7.144;2022-12-18T03:07:11;-8.50;99.90
31733;DHT22;18312;51.486;7.144;2022-12-18T03:09:43;-8.50;99.90
31733;DHT22;18312;51.486;7.144;2022-12-18T03:12:16;-8.50;99.90
31733;DHT22;18312;51.486;7.144;2022-12-18T03:14:54;-8.50;99.90
31733;DHT22;18312;51.486;7.144;2022-12-18T03:17:25;-8.60;99.90
31733;DHT22;18312;51.486;7.144;2022-12-18T03:19:54;-8.60;99.90
31733;DHT22;18312;51.486;7.144;2022-12-18T03:22:31;-8.60;99.90
31733;DHT22;18312;51.486;7.144;2022-12-18T03:25:00;-8.70;99.90
31733;DHT22;18312;51.486;7.144;2022-12-18T03:27:30;-8.50;99.90
31733;DHT22;18312;51.486;7.144;2022-12-18T03:30:02;-8.50;99.90
31733;DHT22;18312;51.486;7.144;2022-12-18T03:32:39;-8.40;99.90
31733;DHT22;18312;51.486;7.144;2022-12-18T03:35:08;-8.30;99.90
31733;DHT22;18312;51.486;7.144;2022-12-18T03:37:37;-8.00;99.90
31733;DHT22;18312;51.486;7.144;2022-12-18T03:40:05;-8.10;99.90
31733;DHT22;18312;51.486;7.144;2022-12-18T03:42:40;-8.20;99.90
31733;DHT22;18312;51.486;7.144;2022-12-18T03:45:12;-8.50;99.90
31733;DHT22;18312;51.486;7.144;2022-12-18T03:47:44;-8.40;99.90
31733;DHT22;18312;51.486;7.144;2022-12-18T03:50:29;-8.50;99.90
31733;DHT22;18312;51.486;7.144;2022-12-18T03:53:02;-8.60;99.90
31733;DHT22;18312;51.486;7.144;2022-12-18T03:55:34;-8.70;99.90
31733;DHT22;18312;51.486;7.144;2022-12-18T03:58:05;-8.80;99.90
31733;DHT22;18312;51.486;7.144;2022-12-18T04:00:34;-8.90;99.90
31733;DHT22;18312;51.486;7.144;2022-12-18T04:03:02;-8.80;99.90
31733;DHT22;18312;51.486;7.144;2022-12-18T04:05:32;-8.70;99.90
31733;DHT22;18312;51.486;7.144;2022-12-18T04:08:00;-8.80;99.90
31733;DHT22;18312;51.486;7.144;2022-12-18T04:10:28;-8.80;99.90
31733;DHT22;18312;51.486;7.144;2022-12-18T04:13:04;-8.80;99.90
31733;DHT22;18312;51.486;7.144;2022-12-18T04:15:32;-8.90;99.90
31733;DHT22;18312;51.486;7.144;2022-12-18T04:18:00;-8.90;99.90
31733;DHT22;18312;51.486;7.144;2022-12-18T04:20:27;-8.80;99.90
31733;DHT22;18312;51.486;7.144;2022-12-18T04:22:54;-9.00;99.90
31733;DHT22;18312;51.486;7.144;2022-12-18T04:25:21;-9.10;99.90
31733;DHT22;18312;51.486;7.144;2022-12-18T04:27:48;-9.10;99.90
31733;DHT22;18312;51.486;7.144;2022-12-18T04:30:16;-9.00;99.90
31733;DHT22;18312;51.486;7.144;2022-12-18T04:32:43;-9.00;99.90
31733;DHT22;18312;51.486;7.144;2022-12-18T04:35:10;-9.00;99.90
31733;DHT22;18312;51.486;7.144;2022-12-18T04:37:37;-8.80;99.90
31733;DHT22;18312;51.486;7.144;2022-12-18T04:40:05;-8.80;99.90
31733;DHT22;18312;51.486;7.144;2022-12-18T04:42:32;-8.90;99.90
31733;DHT22;18312;51.486;7.144;2022-12-18T04:44:59;-8.90;99.90
31733;DHT22;18312;51.486;7.144;2022-12-18T04:47:27;-9.10;99.90
31733;DHT22;18312;51.486;7.144;2022-12-18T04:49:54;-9.10;99.90
31733;DHT22;18312;51.486;7.144;2022-12-18T04:52:20;-9.00;99.90
31733;DHT22;18312;51.486;7.144;2022-12-18T04:54:47;-8.80;99.90
31733;DHT22;18312;51.486;7.144;2022-12-18T04:57:14;-8.60;99.90
31733;DHT22;18312;51.486;7.144;2022-12-18T04:59:43;-8.30;99.90
31733;DHT22;18312;51.486;7.144;2022-12-18T05:02:10;-8.30;99.90
31733;DHT22;18312;51.486;7.144;2022-12-18T05:04:39;-8.10;99.90
31733;DHT22;18312;51.486;7.144;2022-12-18T05:07:21;-8.30;99.90
31733;DHT22;18312;51.486;7.144;2022-12-18T05:09:48;-8.40;99.90
31733;DHT22;18312;51.486;7.144;2022-12-18T05:12:15;-8.30;99.90
31733;DHT22;18312;51.486;7.144;2022-12-18T05:14:42;-8.40;99.90
31733;DHT22;18312;51.486;7.144;2022-12-18T05:17:09;-8.60;99.90
31733;DHT22;18312;51.486;7.144;2022-12-18T05:19:36;-8.60;99.90
31733;DHT22;18312;51.486;7.144;2022-12-18T05:22:04;-8.60;99.90
31733;DHT22;18312;51.486;7.144;2022-12-18T05:24:31;-8.60;99.90
31733;DHT22;18312;51.486;7.144;2022-12-18T05:26:58;-8.60;99.90
31733;DHT22;18312;51.486;7.144;2022-12-18T05:29:25;-8.60;99.90
31733;DHT22;18312;51.486;7.144;2022-12-18T05:31:52;-8.70;99.90
31733;DHT22;18312;51.486;7.144;2022-12-18T05:34:19;-8.70;99.90
31733;DHT22;18312;51.486;7.144;2022-12-18T05:36:46;-8.90;99.90
31733;DHT22;18312;51.486;7.144;2022-12-18T05:39:14;-8.90;99.90
31733;DHT22;18312;51.486;7.144;2022-12-18T05:41:41;-8.90;99.90
31733;DHT22;18312;51.486;7.144;2022-12-18T05:44:08;-9.10;99.90
31733;DHT22;18312;51.486;7.144;2022-12-18T05:46:36;-9.00;99.90
31733;DHT22;18312;51.486;7.144;2022-12-18T05:49:03;-8.90;99.90
31733;DHT22;18312;51.486;7.144;2022-12-18T05:51:30;-9.00;99.90
31733;DHT22;18312;51.486;7.144;2022-12-18T05:53:57;-9.00;99.90
31733;DHT22;18312;51.486;7.144;2022-12-18T05:56:25;-8.80;99.90
31733;DHT22;18312;51.486;7.144;2022-12-18T05:58:53;-8.70;99.90
31733;DHT22;18312;51.486;7.144;2022-12-18T06:01:22;-8.50;99.90
31733;DHT22;18312;51.486;7.144;2022-12-18T06:03:49;-8.50;99.90
31733;DHT22;18312;51.486;7.144;2022-12-18T06:06:17;-8.60;99.90
31733;DHT22;18312;51.486;7.144;2022-12-18T06:08:44;-8.50;99.90
31733;DHT22;18312;51.486;7.144;2022-12-18T06:11:12;-8.60;99.90
31733;DHT22;18312;51.486;7.144;2022-12-18T06:13:40;-8.80;99.90
31733;DHT22;18312;51.486;7.144;2022-12-18T06:16:07;-9.00;99.90
31733;DHT22;18312;51.486;7.144;2022-12-18T06:18:37;-9.00;99.90
31733;DHT22;18312;51.486;7.144;2022-12-18T06:21:04;-8.90;99.90
31733;DHT22;18312;51.486;7.144;2022-12-18T06:23:31;-9.00;99.90
31733;DHT22;18312;51.486;7.144;2022-12-18T06:26:02;-9.00;99.90
31733;DHT22;18312;51.486;7.144;2022-12-18T06:28:29;-9.10;99.90
31733;DHT22;18312;51.486;7.144;2022-12-18T06:30:58;-9.20;99.90
31733;DHT22;18312;51.486;7.144;2022-12-18T06:33:26;-9.00;99.90
31733;DHT22;18312;51.486;7.144;2022-12-18T06:35:53;-9.00;99.90
31733;DHT22;18312;51.486;7.144;2022-12-18T06:38:20;-9.10;99.90
31733;DHT22;18312;51.486;7.144;2022-12-18T06:40:47;-9.10;99.90
31733;DHT22;18312;51.486;7.144;2022-12-18T06:45:43;-8.90;99.90
31733;DHT22;18312;51.486;7.144;2022-12-18T06:48:13;-8.90;99.90
31733;DHT22;18312;51.486;7.144;2022-12-18T06:50:42;-8.80;99.90
31733;DHT22;18312;51.486;7.144;2022-12-18T06:53:08;-8.60;99.90
31733;DHT22;18312;51.486;7.144;2022-12-18T06:55:35;-8.50;99.90
31733;DHT22;18312;51.486;7.144;2022-12-18T06:58:02;-8.40;99.90
31733;DHT22;18312;51.486;7.144;2022-12-18T07:00:28;-8.50;99.90
31733;DHT22;18312;51.486;7.144;2022-12-18T07:02:55;-8.60;99.90
31733;DHT22;18312;51.486;7.144;2022-12-18T07:05:23;-8.70;99.90
31733;DHT22;18312;51.486;7.144;2022-12-18T07:07:50;-8.80;99.90
31733;DHT22;18312;51.486;7.144;2022-12-18T07:10:17;-8.90;99.90
31733;DHT22;18312;51.486;7.144;2022-12-18T07:12:44;-8.80;99.90
31733;DHT22;18312;51.486;7.144;2022-12-18T07:15:11;-8.80;99.90
31733;DHT22;18312;51.486;7.144;2022-12-18T07:17:37;-8.80;99.90
31733;DHT22;18312;51.486;7.144;2022-12-18T07:20:05;-8.90;99.90
31733;DHT22;18312;51.486;7.144;2022-12-18T07:22:33;-9.00;99.90
31733;DHT22;18312;51.486;7.144;2022-12-18T07:24:59;-9.00;99.90
31733;DHT22;18312;51.486;7.144;2022-12-18T07:27:26;-9.00;99.90
31733;DHT22;18312;51.486;7.144;2022-12-18T07:29:53;-9.00;99.90
31733;DHT22;18312;51.486;7.144;2022-12-18T07:32:20;-9.00;99.90
31733;DHT22;18312;51.486;7.144;2022-12-18T07:34:47;-9.00;99.90
31733;DHT22;18312;51.486;7.144;2022-12-18T07:37:13;-9.00;99.90
31733;DHT22;18312;51.486;7.144;2022-12-18T07:39:41;-8.80;99.90
31733;DHT22;18312;51.486;7.144;2022-12-18T07:42:08;-8.70;99.90
31733;DHT22;18312;51.486;7.144;2022-12-18T07:44:52;-8.40;99.90
31733;DHT22;18312;51.486;7.144;2022-12-18T07:47:19;-8.20;99.90
31733;DHT22;18312;51.486;7.144;2022-12-18T07:49:45;-7.80;99.90
31733;DHT22;18312;51.486;7.144;2022-12-18T07:52:12;-7.60;99.90
31733;DHT22;18312;51.486;7.144;2022-12-18T07:54:39;-7.30;99.90
31733;DHT22;18312;51.486;7.144;2022-12-18T07:57:07;-7.50;99.90
31733;DHT22;18312;51.486;7.144;2022-12-18T07:59:34;-7.30;99.90
31733;DHT22;18312;51.486;7.144;2022-12-18T08:02:01;-7.30;99.90
31733;DHT22;18312;51.486;7.144;2022-12-18T08:04:28;-7.20;99.90
31733;DHT22;18312;51.486;7.144;2022-12-18T08:06:55;-7.10;99.90
31733;DHT22;18312;51.486;7.144;2022-12-18T08:09:22;-7.00;99.90
31733;DHT22;18312;51.486;7.144;2022-12-18T08:11:48;-7.00;99.90
31733;DHT22;18312;51.486;7.144;2022-12-18T08:14:16;-7.10;99.90
31733;DHT22;18312;51.486;7.144;2022-12-18T08:16:43;-7.20;99.90
31733;DHT22;18312;51.486;7.144;2022-12-18T08:19:10;-7.20;99.90
31733;DHT22;18312;51.486;7.144;2022-12-18T08:21:37;-7.20;99.90
31733;DHT22;18312;51.486;7.144;2022-12-18T08:24:08;-7.10;99.90
31733;DHT22;18312;51.486;7.144;2022-12-18T08:26:35;-7.00;99.90
31733;DHT22;18312;51.486;7.144;2022-12-18T08:29:02;-7.00;99.90
31733;DHT22;18312;51.486;7.144;2022-12-18T08:31:30;-6.90;99.90
31733;DHT22;18312;51.486;7.144;2022-12-18T08:33:58;-6.80;99.90
31733;DHT22;18312;51.486;7.144;2022-12-18T08:36:25;-6.80;99.90
31733;DHT22;18312;51.486;7.144;2022-12-18T08:38:52;-6.70;99.90
31733;DHT22;18312;51.486;7.144;2022-12-18T08:41:20;-6.70;99.90
31733;DHT22;18312;51.486;7.144;2022-12-18T08:43:46;-6.60;99.90
31733;DHT22;18312;51.486;7.144;2022-12-18T08:46:36;-6.40;99.90
31733;DHT22;18312;51.486;7.144;2022-12-18T08:49:04;-6.30;99.90
31733;DHT22;18312;51.486;7.144;2022-12-18T08:51:31;-6.30;99.90
31733;DHT22;18312;51.486;7.144;2022-12-18T08:53:58;-6.10;99.90
31733;DHT22;18312;51.486;7.144;2022-12-18T08:56:24;-6.00;99.90
31733;DHT22;18312;51.486;7.144;2022-12-18T08:58:52;-6.00;99.90
31733;DHT22;18312;51.486;7.144;2022-12-18T09:01:19;-5.90;99.90
31733;DHT22;18312;51.486;7.144;2022-12-18T09:03:47;-5.80;99.90
31733;DHT22;18312;51.486;7.144;2022-12-18T09:06:15;-5.70;99.90
31733;DHT22;18312;51.486;7.144;2022-12-18T09:08:42;-5.50;99.90
31733;DHT22;18312;51.486;7.144;2022-12-18T09:11:14;-5.40;99.90
31733;DHT22;18312;51.486;7.144;2022-12-18T09:13:41;-5.30;99.90
31733;DHT22;18312;51.486;7.144;2022-12-18T09:16:07;-5.20;99.90
31733;DHT22;18312;51.486;7.144;2022-12-18T09:18:35;-5.10;99.90
31733;DHT22;18312;51.486;7.144;2022-12-18T09:21:09;-5.00;99.90
31733;DHT22;18312;51.486;7.144;2022-12-18T09:23:36;-4.90;99.90
31733;DHT22;18312;51.486;7.144;2022-12-18T09:26:03;-4.90;99.90
31733;DHT22;18312;51.486;7.144;2022-12-18T09:28:29;-4.80;99.90
31733;DHT22;18312;51.486;7.144;2022-12-18T09:30:56;-4.80;99.90
31733;DHT22;18312;51.486;7.144;2022-12-18T09:33:23;-4.80;99.90
31733;DHT22;18312;51.486;7.144;2022-12-18T09:35:49;-4.80;99.90
31733;DHT22;18312;51.486;7.144;2022-12-18T09:38:19;-4.60;99.90
31733;DHT22;18312;51.486;7.144;2022-12-18T09:40:48;-4.40;99.90
31733;DHT22;18312;51.486;7.144;2022-12-18T09:43:17;-4.50;99.90
31733;DHT22;18312;51.486;7.144;2022-12-18T09:45:47;-4.40;99.90
31733;DHT22;18312;51.486;7.144;2022-12-18T09:48:21;-4.40;99.90
31733;DHT22;18312;51.486;7.144;2022-12-18T09:50:50;-4.30;99.90
31733;DHT22;18312;51.486;7.144;2022-12-18T09:53:21;-4.10;99.90
31733;DHT22;18312;51.486;7.144;2022-12-18T09:55:51;-4.00;99.90
31733;DHT22;18312;51.486;7.144;2022-12-18T09:58:22;-3.90;99.90
31733;DHT22;18312;51.486;7.144;2022-12-18T10:00:51;-3.70;99.90
31733;DHT22;18312;51.486;7.144;2022-12-18T10:03:18;-3.60;99.90
31733;DHT22;18312;51.486;7.144;2022-12-18T10:05:54;-3.50;99.90
31733;DHT22;18312;51.486;7.144;2022-12-18T10:08:28;-3.40;99.90
31733;DHT22;18312;51.486;7.144;2022-12-18T10:10:59;-3.20;99.90
31733;DHT22;18312;51.486;7.144;2022-12-18T10:13:31;-2.90;99.90
31733;DHT22;18312;51.486;7.144;2022-12-18T10:16:09;-2.20;99.90
31733;DHT22;18312;51.486;7.144;2022-12-18T10:19:01;-2.00;99.90
31733;DHT22;18312;51.486;7.144;2022-12-18T10:21:41;-1.70;99.90
31733;DHT22;18312;51.486;7.144;2022-12-18T10:24:18;-1.10;99.90
31733;DHT22;18312;51.486;7.144;2022-12-18T10:26:49;-0.60;99.90
31733;DHT22;18312;51.486;7.144;2022-12-18T10:29:16;-0.20;99.90
31733;DHT22;18312;51.486;7.144;2022-12-18T10:31:43;0.20;99.90
31733;DHT22;18312;51.486;7.144;2022-12-18T10:34:10;0.70;99.90
31733;DHT22;18312;51.486;7.144;2022-12-18T10:36:37;0.80;99.90
31733;DHT22;18312;51.486;7.144;2022-12-18T10:39:19;1.00;99.90
31733;DHT22;18312;51.486;7.144;2022-12-18T10:41:49;1.30;99.90
31733;DHT22;18312;51.486;7.144;2022-12-18T10:44:18;1.30;99.90
31733;DHT22;18312;51.486;7.144;2022-12-18T10:46:46;1.40;99.90
31733;DHT22;18312;51.486;7.144;2022-12-18T10:49:21;1.40;99.90
31733;DHT22;18312;51.486;7.144;2022-12-18T10:51:48;1.60;97.90
31733;DHT22;18312;51.486;7.144;2022-12-18T10:54:21;1.80;98.40
31733;DHT22;18312;51.486;7.144;2022-12-18T10:56:48;1.80;99.90
31733;DHT22;18312;51.486;7.144;2022-12-18T10:59:17;1.80;99.70
31733;DHT22;18312;51.486;7.144;2022-12-18T11:01:52;2.00;97.30
31733;DHT22;18312;51.486;7.144;2022-12-18T11:04:22;2.00;97.50
31733;DHT22;18312;51.486;7.144;2022-12-18T11:06:57;2.00;97.70
31733;DHT22;18312;51.486;7.144;2022-12-18T11:09:28;2.10;96.40
31733;DHT22;18312;51.486;7.144;2022-12-18T11:11:56;2.50;94.60
31733;DHT22;18312;51.486;7.144;2022-12-18T11:14:26;2.50;95.00
31733;DHT22;18312;51.486;7.144;2022-12-18T11:16:54;2.50;95.60
31733;DHT22;18312;51.486;7.144;2022-12-18T11:19:29;2.40;95.50
31733;DHT22;18312;51.486;7.144;2022-12-18T11:21:58;2.50;95.00
31733;DHT22;18312;51.486;7.144;2022-12-18T11:24:29;2.50;96.10
31733;DHT22;18312;51.486;7.144;2022-12-18T11:26:59;2.50;94.80
31733;DHT22;18312;51.486;7.144;2022-12-18T11:29:28;2.70;93.30
31733;DHT22;18312;51.486;7.144;2022-12-18T11:35:01;3.00;91.50
31733;DHT22;18312;51.486;7.144;2022-12-18T11:37:29;3.00;91.40
31733;DHT22;18312;51.486;7.144;2022-12-18T11:40:03;3.10;91.10
31733;DHT22;18312;51.486;7.144;2022-12-18T11:42:37;3.10;91.00
31733;DHT22;18312;51.486;7.144;2022-12-18T11:45:23;3.10;91.90
31733;DHT22;18312;51.486;7.144;2022-12-18T11:47:56;3.20;91.90
31733;DHT22;18312;51.486;7.144;2022-12-18T11:50:26;3.10;91.20
31733;DHT22;18312;51.486;7.144;2022-12-18T11:52:54;3.30;89.60
31733;DHT22;18312;51.486;7.144;2022-12-18T11:55:31;3.30;89.20
31733;DHT22;18312;51.486;7.144;2022-12-18T11:58:05;3.30;90.20
31733;DHT22;18312;51.486;7.144;2022-12-18T12:00:39;3.40;88.20
31733;DHT22;18312;51.486;7.144;2022-12-18T12:03:27;3.40;90.90
31733;DHT22;18312;51.486;7.144;2022-12-18T12:06:08;3.40;90.20
31733;DHT22;18312;51.486;7.144;2022-12-18T12:08:49;3.50;87.90
31733;DHT22;18312;51.486;7.144;2022-12-18T12:11:24;3.50;87.10
31733;DHT22;18312;51.486;7.144;2022-12-18T12:14:03;3.50;88.20
31733;DHT22;18312;51.486;7.144;2022-12-18T12:16:39;3.50;88.80
31733;DHT22;18312;51.486;7.144;2022-12-18T12:19:20;3.50;88.80
31733;DHT22;18312;51.486;7.144;2022-12-18T12:21:53;3.50;90.20
31733;DHT22;18312;51.486;7.144;2022-12-18T12:24:38;3.50;90.40
31733;DHT22;18312;51.486;7.144;2022-12-18T12:27:18;3.50;89.30
31733;DHT22;18312;51.486;7.144;2022-12-18T12:29:54;3.50;90.30
31733;DHT22;18312;51.486;7.144;2022-12-18T12:32:36;3.50;91.00
31733;DHT22;18312;51.486;7.144;2022-12-18T12:35:19;3.60;86.00
31733;DHT22;18312;51.486;7.144;2022-12-18T12:37:55;3.60;86.80
31733;DHT22;18312;51.486;7.144;2022-12-18T12:40:28;3.40;94.00
31733;DHT22;18312;51.486;7.144;2022-12-18T12:43:00;2.80;98.60
31733;DHT22;18312;51.486;7.144;2022-12-18T12:48:16;1.90;99.90
31733;DHT22;18312;51.486;7.144;2022-12-18T12:50:44;1.70;99.90
31733;DHT22;18312;51.486;7.144;2022-12-18T12:53:21;1.60;99.90
31733;DHT22;18312;51.486;7.144;2022-12-18T12:55:51;1.80;99.90
31733;DHT22;18312;51.486;7.144;2022-12-18T12:58:25;2.00;99.90
31733;DHT22;18312;51.486;7.144;2022-12-18T13:01:04;2.20;97.70
31733;DHT22;18312;51.486;7.144;2022-12-18T13:03:42;2.70;93.80
31733;DHT22;18312;51.486;7.144;2022-12-18T13:06:16;3.00;91.10
31733;DHT22;18312;51.486;7.144;2022-12-18T13:08:54;3.20;91.20
31733;DHT22;18312;51.486;7.144;2022-12-18T13:11:35;3.20;90.80
31733;DHT22;18312;51.486;7.144;2022-12-18T13:14:27;3.20;91.30
31733;DHT22;18312;51.486;7.144;2022-12-18T13:17:16;3.20;90.40
31733;DHT22;18312;51.486;7.144;2022-12-18T13:19:43;3.30;90.30
31733;DHT22;18312;51.486;7.144;2022-12-18T13:22:22;3.30;89.90
31733;DHT22;18312;51.486;7.144;2022-12-18T13:24:49;3.30;90.30
31733;DHT22;18312;51.486;7.144;2022-12-18T13:27:53;3.20;90.10
31733;DHT22;18312;51.486;7.144;2022-12-18T13:30:48;3.20;90.00
31733;DHT22;18312;51.486;7.144;2022-12-18T13:33:39;3.10;89.60
31733;DHT22;18312;51.486;7.144;2022-12-18T13:36:14;3.10;90.10
31733;DHT22;18312;51.486;7.144;2022-12-18T13:38:42;3.10;89.90
31733;DHT22;18312;51.486;7.144;2022-12-18T13:41:24;3.10;90.30
31733;DHT22;18312;51.486;7.144;2022-12-18T13:43:52;3.10;89.40
31733;DHT22;18312;51.486;7.144;2022-12-18T13:46:23;3.10;89.30
31733;DHT22;18312;51.486;7.144;2022-12-18T13:49:00;3.00;90.20
31733;DHT22;18312;51.486;7.144;2022-12-18T13:51:27;2.90;90.80
31733;DHT22;18312;51.486;7.144;2022-12-18T13:53:57;2.90;90.40
31733;DHT22;18312;51.486;7.144;2022-12-18T13:56:26;2.90;90.40
31733;DHT22;18312;51.486;7.144;2022-12-18T13:59:12;2.90;90.10
31733;DHT22;18312;51.486;7.144;2022-12-18T14:01:47;2.90;90.60
31733;DHT22;18312;51.486;7.144;2022-12-18T14:04:20;2.80;90.30
31733;DHT22;18312;51.486;7.144;2022-12-18T14:06:48;2.80;90.90
31733;DHT22;18312;51.486;7.144;2022-12-18T14:09:19;2.70;91.40
31733;DHT22;18312;51.486;7.144;2022-12-18T14:11:49;2.70;91.30
31733;DHT22;18312;51.486;7.144;2022-12-18T14:14:17;2.70;91.10
31733;DHT22;18312;51.486;7.144;2022-12-18T14:16:46;2.60;91.40
31733;DHT22;18312;51.486;7.144;2022-12-18T14:19:16;2.60;91.40
31733;DHT22;18312;51.486;7.144;2022-12-18T14:21:47;2.60;91.20
31733;DHT22;18312;51.486;7.144;2022-12-18T14:24:15;2.60;90.60
31733;DHT22;18312;51.486;7.144;2022-12-18T14:26:43;2.60;91.10
31733;DHT22;18312;51.486;7.144;2022-12-18T14:29:23;2.50;91.40
31733;DHT22;18312;51.486;7.144;2022-12-18T14:32:10;2.50;91.10
31733;DHT22;18312;51.486;7.144;2022-12-18T14:34:37;2.50;91.90
31733;DHT22;18312;51.486;7.144;2022-12-18T14:37:04;2.40;91.30
31733;DHT22;18312;51.486;7.144;2022-12-18T14:39:32;2.40;92.20
31733;DHT22;18312;51.486;7.144;2022-12-18T14:41:59;2.40;91.10
31733;DHT22;18312;51.486;7.144;2022-12-18T14:44:25;2.40;91.90
31733;DHT22;18312;51.486;7.144;2022-12-18T14:46:52;2.30;92.10
31733;DHT22;18312;51.486;7.144;2022-12-18T14:49:24;2.30;92.20
31733;DHT22;18312;51.486;7.144;2022-12-18T14:51:54;2.20;92.10
31733;DHT22;18312;51.486;7.144;2022-12-18T14:54:21;2.20;92.40
31733;DHT22;18312;51.486;7.144;2022-12-18T14:56:59;2.20;92.30
31733;DHT22;18312;51.486;7.144;2022-12-18T14:59:27;2.20;92.20
31733;DHT22;18312;51.486;7.144;2022-12-18T15:01:59;2.20;92.20
31733;DHT22;18312;51.486;7.144;2022-12-18T15:04:32;2.20;91.80
31733;DHT22;18312;51.486;7.144;2022-12-18T15:07:09;2.20;91.80
31733;DHT22;18312;51.486;7.144;2022-12-18T15:09:39;2.20;91.80
31733;DHT22;18312;51.486;7.144;2022-12-18T15:12:22;2.20;92.20
31733;DHT22;18312;51.486;7.144;2022-12-18T15:14:51;2.20;91.50
31733;DHT22;18312;51.486;7.144;2022-12-18T15:17:20;2.10;92.10
31733;DHT22;18312;51.486;7.144;2022-12-18T15:19:58;2.20;91.50
31733;DHT22;18312;51.486;7.144;2022-12-18T15:22:38;2.10;91.90
31733;DHT22;18312;51.486;7.144;2022-12-18T15:25:25;2.10;91.10
31733;DHT22;18312;51.486;7.144;2022-12-18T15:27:57;2.00;91.30
31733;DHT22;18312;51.486;7.144;2022-12-18T15:30:30;2.00;91.30
31733;DHT22;18312;51.486;7.144;2022-12-18T15:33:22;2.00;91.70
31733;DHT22;18312;51.486;7.144;2022-12-18T15:35:57;1.90;91.40
31733;DHT22;18312;51.486;7.144;2022-12-18T15:38:25;1.90;91.50
31733;DHT22;18312;51.486;7.144;2022-12-18T15:40:53;1.90;91.70
31733;DHT22;18312;51.486;7.144;2022-12-18T15:43:26;1.80;92.30
31733;DHT22;18312;51.486;7.144;2022-12-18T15:46:08;1.80;91.90
31733;DHT22;18312;51.486;7.144;2022-12-18T15:48:40;1.80;91.80
31733;DHT22;18312;51.486;7.144;2022-12-18T15:51:13;1.70;92.40
31733;DHT22;18312;51.486;7.144;2022-12-18T15:53:45;1.80;91.90
31733;DHT22;18312;51.486;7.144;2022-12-18T15:56:18;1.70;92.50
31733;DHT22;18312;51.486;7.144;2022-12-18T15:59:04;1.70;92.70
31733;DHT22;18312;51.486;7.144;2022-12-18T16:01:31;1.70;92.50
31733;DHT22;18312;51.486;7.144;2022-12-18T16:03:58;1.70;92.50
31733;DHT22;18312;51.486;7.144;2022-12-18T16:06:26;1.70;92.90